Time;durP1;ratioP1;P1;durP2;ratioP2;P2;SDS_P1;SDS_P2;PMS_P1;PMS_P2;Temp;Humidity;BMP_temperature;BMP_pressure;BME280_temperature;BME280_humidity;BME280_pressure;Samples;Min_cycle;Max_cycle;Signal;HPM_P1;HPM_P2
2023/09/26 00:00:18;;;;;;;9.55;6.80;;;;;10.80;96946.00;;;;8320365;28;20228;-65
2023/09/26 00:04:24;;;;;;;12.32;7.35;;;;;10.80;96947.00;;;;8301683;28;20242;-65
2023/09/26 00:08:27;;;;;;;14.00;7.85;;;;;10.70;96944.00;;;;8319285;28;20209;-65
2023/09/26 00:12:36;;;;;;;10.32;7.05;;;;;10.70;96946.00;;;;8313274;28;20306;-65
2023/09/26 00:16:39;;;;;;;14.45;7.57;;;;;10.60;96944.00;;;;8307688;28;20284;-66
2023/09/26 00:20:44;;;;;;;18.73;7.82;;;;;10.60;96942.00;;;;8311879;28;20726;-65
2023/09/26 00:24:47;;;;;;;12.15;7.63;;;;;10.60;96944.00;;;;8299781;28;20284;-65
2023/09/26 00:28:52;;;;;;;15.18;7.43;;;;;10.60;96945.00;;;;8312241;28;20218;-66
2023/09/26 00:32:57;;;;;;;14.45;7.68;;;;;10.60;96949.00;;;;8313992;28;21119;-66
2023/09/26 00:37:02;;;;;;;10.90;7.70;;;;;10.60;96948.00;;;;8316533;28;20200;-66
2023/09/26 00:41:06;;;;;;;12.23;7.65;;;;;10.60;96947.00;;;;8316104;28;20323;-66
2023/09/26 00:45:12;;;;;;;12.35;7.90;;;;;10.60;96957.00;;;;8318128;28;20210;-66
2023/09/26 00:49:16;;;;;;;13.32;8.65;;;;;10.60;96959.00;;;;8325521;28;20657;-66
2023/09/26 00:53:25;;;;;;;13.98;8.00;;;;;10.60;96955.00;;;;8325705;28;20263;-66
2023/09/26 00:57:30;;;;;;;17.98;7.45;;;;;10.60;96952.00;;;;8326314;28;20222;-66
2023/09/26 01:01:34;;;;;;;12.98;7.38;;;;;10.60;96949.00;;;;8330592;28;20232;-66
2023/09/26 01:05:37;;;;;;;13.95;7.63;;;;;10.60;96935.00;;;;8323015;28;20194;-66
2023/09/26 01:09:43;;;;;;;15.45;8.20;;;;;10.50;96925.00;;;;8316082;28;20203;-65
2023/09/26 01:13:49;;;;;;;11.68;7.40;;;;;10.50;96933.00;;;;8331363;28;20196;-65
2023/09/26 01:17:52;;;;;;;15.07;7.40;;;;;10.50;96921.00;;;;8303465;28;20291;-65
2023/09/26 01:21:58;;;;;;;16.35;8.13;;;;;10.50;96930.00;;;;8318586;28;20229;-65
2023/09/26 01:26:05;;;;;;;14.32;7.93;;;;;10.50;96927.00;;;;8313920;28;20212;-65
2023/09/26 01:30:10;;;;;;;12.63;7.65;;;;;10.50;96926.00;;;;8325072;28;20206;-65
2023/09/26 01:34:13;;;;;;;12.10;7.30;;;;;10.40;96925.00;;;;8325100;28;20287;-65
2023/09/26 01:38:17;;;;;;;13.10;7.47;;;;;10.40;96929.00;;;;8322839;28;20217;-65
2023/09/26 01:42:26;;;;;;;12.23;7.65;;;;;10.40;96923.00;;;;8323295;28;20232;-65
2023/09/26 01:46:31;;;;;;;14.85;7.80;;;;;10.30;96929.00;;;;8318343;28;20644;-65
2023/09/26 01:50:36;;;;;;;14.07;7.80;;;;;10.40;96927.00;;;;8323944;28;20205;-65
2023/09/26 01:54:39;;;;;;;13.38;7.63;;;;;10.40;96927.00;;;;8318797;28;20823;-66
2023/09/26 01:58:45;;;;;;;15.35;7.20;;;;;10.30;96928.00;;;;8318182;28;20197;-66
2023/09/26 02:02:50;;;;;;;15.65;7.80;;;;;10.20;96926.00;;;;8308903;28;20280;-65
2023/09/26 02:06:53;;;;;;;14.55;8.40;;;;;10.10;96919.00;;;;8324286;28;20197;-65
2023/09/26 02:10:59;;;;;;;12.73;7.82;;;;;10.10;96922.00;;;;8314977;28;20203;-64
2023/09/26 02:15:11;;;;;;;11.88;7.03;;;;;10.00;96921.00;;;;8302351;28;20290;-65
2023/09/26 02:19:17;;;;;;;18.58;8.20;;;;;10.00;96917.00;;;;8316785;28;20796;-65
2023/09/26 02:23:21;;;;;;;12.68;7.70;;;;;10.00;96906.00;;;;8317796;28;20197;-65
2023/09/26 02:27:25;;;;;;;13.50;8.18;;;;;10.00;96904.00;;;;8322235;28;20225;-65
2023/09/26 02:31:37;;;;;;;13.80;8.25;;;;;10.00;96908.00;;;;8316282;28;20197;-65
2023/09/26 02:35:40;;;;;;;11.93;7.68;;;;;10.00;96902.00;;;;8313528;28;20211;-65
2023/09/26 02:39:45;;;;;;;12.05;6.95;;;;;9.90;96909.00;;;;8315801;28;20316;-65
2023/09/26 02:43:55;;;;;;;12.43;7.57;;;;;9.90;96900.00;;;;8303814;28;20919;-65
2023/09/26 02:48:01;;;;;;;9.63;7.05;;;;;9.90;96915.00;;;;8318326;28;20236;-66
2023/09/26 02:52:04;;;;;;;10.85;6.78;;;;;9.80;96920.00;;;;8297955;28;20343;-66
2023/09/26 02:56:10;;;;;;;12.98;7.93;;;;;9.80;96908.00;;;;8295426;28;20806;-66
2023/09/26 03:00:16;;;;;;;10.77;6.93;;;;;9.80;96905.00;;;;8319400;28;20240;-65
2023/09/26 03:04:23;;;;;;;12.25;7.63;;;;;9.80;96905.00;;;;8363215;23;20259;-66
2023/09/26 03:08:29;;;;;;;13.88;7.95;;;;;9.70;96897.00;;;;8352896;28;20227;-65
2023/09/26 03:12:35;;;;;;;10.35;7.00;;;;;9.70;96905.00;;;;8358980;28;20201;-65
2023/09/26 03:16:39;;;;;;;13.68;8.00;;;;;9.70;96904.00;;;;8349547;28;20211;-66
2023/09/26 03:20:45;;;;;;;14.18;8.13;;;;;9.70;96908.00;;;;8354864;28;20224;-66
2023/09/26 03:24:48;;;;;;;14.93;7.90;;;;;9.60;96900.00;;;;8355908;28;20201;-66
2023/09/26 03:28:52;;;;;;;14.50;7.97;;;;;9.60;96894.00;;;;8354767;28;20202;-65
2023/09/26 03:32:55;;;;;;;13.48;7.68;;;;;9.60;96893.00;;;;8354531;28;20211;-66
2023/09/26 03:37:04;;;;;;;13.70;7.60;;;;;9.60;96887.00;;;;8350947;28;20192;-66
2023/09/26 03:41:08;;;;;;;11.83;7.63;;;;;9.60;96879.00;;;;8353122;28;20220;-65
2023/09/26 03:45:14;;;;;;;13.23;8.43;;;;;9.60;96883.00;;;;8347296;28;20196;-65
2023/09/26 03:49:20;;;;;;;15.00;8.90;;;;;9.70;96877.00;;;;8356811;28;21675;-65
2023/09/26 03:53:28;;;;;;;14.70;8.00;;;;;9.70;96875.00;;;;8359189;28;20403;-66
2023/09/26 03:57:37;;;;;;;12.18;7.93;;;;;9.70;96868.00;;;;8345470;28;20229;-66
2023/09/26 04:01:42;;;;;;;13.55;8.25;;;;;9.80;96875.00;;;;8324359;28;20267;-65
2023/09/26 04:05:48;;;;;;;17.40;9.13;;;;;9.80;96874.00;;;;8313924;28;20242;-65
2023/09/26 04:09:52;;;;;;;13.52;8.00;;;;;9.80;96876.00;;;;8339514;28;20227;-65
2023/09/26 04:14:02;;;;;;;14.03;8.33;;;;;9.90;96870.00;;;;8341573;28;20196;-65
2023/09/26 04:18:08;;;;;;;13.98;8.02;;;;;9.80;96873.00;;;;8338276;28;20256;-66
2023/09/26 04:22:14;;;;;;;14.73;7.85;;;;;9.80;96873.00;;;;8331931;28;21307;-65
2023/09/26 04:26:23;;;;;;;12.55;8.15;;;;;9.80;96877.00;;;;8349084;28;20243;-66
2023/09/26 04:30:26;;;;;;;14.50;7.13;;;;;9.80;96878.00;;;;8345368;28;20288;-69
2023/09/26 04:34:29;;;;;;;11.02;7.47;;;;;9.70;96877.00;;;;8347781;28;20299;-71
2023/09/26 04:38:33;;;;;;;10.18;6.60;;;;;9.60;96885.00;;;;8341972;28;20194;-69
2023/09/26 04:42:41;;;;;;;13.38;6.88;;;;;9.50;96875.00;;;;8340346;28;20859;-68
2023/09/26 04:46:44;;;;;;;14.52;6.93;;;;;9.40;96881.00;;;;8343428;28;20299;-68
2023/09/26 04:50:50;;;;;;;12.00;7.07;;;;;9.40;96876.00;;;;8355788;28;20249;-68
2023/09/26 04:54:57;;;;;;;12.90;7.20;;;;;9.40;96877.00;;;;8366650;28;20316;-67
2023/09/26 04:59:02;;;;;;;12.80;7.68;;;;;9.30;96878.00;;;;8348254;28;21311;-67
2023/09/26 05:03:07;;;;;;;14.53;8.23;;;;;9.20;96881.00;;;;8364419;28;20343;-68
2023/09/26 05:07:10;;;;;;;20.08;8.25;;;;;9.20;96885.00;;;;8364658;28;20192;-68
2023/09/26 05:11:19;;;;;;;13.27;8.45;;;;;9.20;96879.00;;;;8351396;28;20229;-68
2023/09/26 05:15:24;;;;;;;17.13;8.47;;;;;9.20;96888.00;;;;8357973;28;20287;-68
2023/09/26 05:19:29;;;;;;;16.50;8.67;;;;;9.30;96883.00;;;;8361027;28;20270;-68
2023/09/26 05:23:35;;;;;;;17.25;8.35;;;;;9.30;96886.00;;;;8360678;28;20214;-69
2023/09/26 05:27:43;;;;;;;16.52;7.82;;;;;9.40;96885.00;;;;8367697;28;20196;-68
2023/09/26 05:31:48;;;;;;;14.57;8.60;;;;;9.50;96886.00;;;;8356745;28;20205;-68
2023/09/26 05:35:53;;;;;;;15.70;8.53;;;;;9.60;96887.00;;;;8358601;28;20752;-68
2023/09/26 05:39:58;;;;;;;16.45;9.02;;;;;9.60;96882.00;;;;8369195;28;20207;-68
2023/09/26 05:44:01;;;;;;;15.90;8.77;;;;;9.80;96880.00;;;;8361165;28;20581;-68
2023/09/26 05:48:07;;;;;;;15.82;9.10;;;;;9.90;96881.00;;;;8369149;28;20228;-68
2023/09/26 05:52:13;;;;;;;16.60;8.60;;;;;10.00;96891.00;;;;8368601;28;20195;-69
2023/09/26 05:56:16;;;;;;;15.15;7.90;;;;;10.10;96891.00;;;;8367327;28;20201;-68
2023/09/26 06:00:22;;;;;;;14.13;7.80;;;;;10.20;96886.00;;;;8372323;28;20196;-68
2023/09/26 06:04:27;;;;;;;14.80;8.70;;;;;10.40;96886.00;;;;8359455;28;20319;-68
2023/09/26 06:08:33;;;;;;;14.05;8.40;;;;;10.50;96890.00;;;;8374264;28;20204;-68
2023/09/26 06:12:38;;;;;;;15.30;8.00;;;;;10.70;96888.00;;;;8363731;28;20192;-68
2023/09/26 06:16:41;;;;;;;15.93;8.18;;;;;10.80;96892.00;;;;8367668;28;20198;-68
2023/09/26 06:20:50;;;;;;;15.00;8.80;;;;;10.90;96901.00;;;;8369207;28;20235;-69
2023/09/26 06:24:53;;;;;;;11.40;8.10;;;;;11.00;96903.00;;;;8370380;28;20626;-68
2023/09/26 06:28:56;;;;;;;13.88;8.35;;;;;11.10;96903.00;;;;8363350;28;20289;-68
2023/09/26 06:33:05;;;;;;;14.90;8.25;;;;;11.20;96896.00;;;;8368217;28;20204;-69
2023/09/26 06:37:10;;;;;;;12.30;7.47;;;;;11.40;96903.00;;;;8365226;28;20202;-68
2023/09/26 06:41:14;;;;;;;16.38;8.63;;;;;11.50;96896.00;;;;8368967;28;20255;-69
2023/09/26 06:45:18;;;;;;;15.48;8.65;;;;;11.70;96903.00;;;;8375972;28;20210;-69
2023/09/26 06:49:21;;;;;;;21.25;10.40;;;;;11.90;96901.00;;;;8357787;28;20200;-68
2023/09/26 06:53:26;;;;;;;11.90;8.63;;;;;12.10;96893.00;;;;8365563;28;20211;-69
2023/09/26 06:57:31;;;;;;;14.98;9.25;;;;;12.30;96902.00;;;;8370008;28;20203;-68
2023/09/26 07:01:34;;;;;;;14.55;9.55;;;;;12.50;96896.00;;;;8371779;28;20763;-69
2023/09/26 07:05:38;;;;;;;24.27;12.18;;;;;12.80;96906.00;;;;8367098;28;20814;-69
2023/09/26 07:09:46;;;;;;;18.33;10.55;;;;;13.10;96904.00;;;;8375316;28;20720;-69
2023/09/26 07:13:52;;;;;;;20.15;11.07;;;;;13.40;96909.00;;;;8349764;28;20208;-69
2023/09/26 07:17:55;;;;;;;25.35;13.82;;;;;13.80;96908.00;;;;8359994;28;20203;-69
2023/09/26 07:22:01;;;;;;;19.17;12.48;;;;;14.20;96911.00;;;;8371167;28;20250;-69
2023/09/26 07:26:12;;;;;;;19.90;12.60;;;;;14.40;96919.00;;;;8348930;28;20242;-70
2023/09/26 07:30:18;;;;;;;21.15;11.35;;;;;14.70;96924.00;;;;8366288;28;20239;-69
2023/09/26 07:34:21;;;;;;;19.25;11.95;;;;;14.90;96930.00;;;;8367308;28;20593;-70
2023/09/26 07:38:24;;;;;;;14.85;10.65;;;;;15.00;96935.00;;;;8362636;28;20200;-70
2023/09/26 07:42:39;;;;;;;18.73;10.95;;;;;15.20;96939.00;;;;8360689;28;20259;-70
2023/09/26 07:46:44;;;;;;;19.00;9.80;;;;;15.30;96946.00;;;;8363150;28;20196;-70
2023/09/26 07:50:50;;;;;;;12.05;9.23;;;;;15.40;96941.00;;;;8364960;28;20257;-70
2023/09/26 07:54:53;;;;;;;12.43;9.68;;;;;15.50;96937.00;;;;8369226;28;20728;-70
2023/09/26 07:59:00;;;;;;;11.98;8.93;;;;;15.60;96933.00;;;;8366178;28;20200;-70
2023/09/26 08:03:06;;;;;;;13.90;8.68;;;;;15.70;96932.00;;;;8347306;28;20323;-70
2023/09/26 08:07:13;;;;;;;12.50;9.07;;;;;15.80;96932.00;;;;8368200;28;20562;-69
2023/09/26 08:11:21;;;;;;;12.07;9.43;;;;;15.90;96928.00;;;;8372691;28;20200;-69
2023/09/26 08:15:30;;;;;;;12.38;9.15;;;;;16.10;96927.00;;;;8375736;28;20584;-69
2023/09/26 08:19:33;;;;;;;11.55;9.05;;;;;16.30;96921.00;;;;8357319;28;20246;-70
2023/09/26 08:23:37;;;;;;;12.30;9.07;;;;;16.40;96918.00;;;;8375646;28;20231;-69
2023/09/26 08:27:40;;;;;;;11.27;7.93;;;;;16.60;96930.00;;;;8378321;28;20189;-69
2023/09/26 08:31:45;;;;;;;15.90;8.05;;;;;16.80;96932.00;;;;8374683;28;20240;-69
2023/09/26 08:35:51;;;;;;;9.15;7.30;;;;;17.10;96930.00;;;;8373050;28;21033;-69
2023/09/26 08:39:55;;;;;;;10.77;7.38;;;;;17.50;96924.00;;;;8370519;28;20221;-68
2023/09/26 08:43:59;;;;;;;11.55;6.90;;;;;17.80;96923.00;;;;8356609;28;20232;-69
2023/09/26 08:48:05;;;;;;;9.13;6.78;;;;;18.10;96927.00;;;;8373983;28;20210;-70
2023/09/26 08:52:09;;;;;;;17.23;7.40;;;;;18.50;96923.00;;;;8367813;28;20200;-70
2023/09/26 08:56:16;;;;;;;7.53;6.72;;;;;18.80;96915.00;;;;8371338;28;20200;-70
2023/09/26 09:00:21;;;;;;;8.57;6.40;;;;;19.30;96924.00;;;;8350495;28;20228;-70
2023/09/26 09:04:26;;;;;;;6.07;5.47;;;;;19.70;96924.00;;;;8370788;28;20231;-70
2023/09/26 09:08:30;;;;;;;8.20;6.15;;;;;20.20;96923.00;;;;8369087;28;20208;-70
2023/09/26 09:12:37;;;;;;;8.60;6.00;;;;;20.60;96923.00;;;;8362442;28;20234;-71
2023/09/26 09:16:54;;;;;;;8.27;5.90;;;;;21.00;96915.00;;;;8366572;28;20200;-69
2023/09/26 09:20:59;;;;;;;7.70;5.35;;;;;21.70;96918.00;;;;8358269;28;20215;-69
2023/09/26 09:25:04;;;;;;;8.43;5.60;;;;;22.50;96910.00;;;;8360890;28;20228;-69
2023/09/26 09:29:18;;;;;;;7.57;5.07;;;;;23.20;96915.00;;;;8362234;28;20843;-69
2023/09/26 09:33:24;;;;;;;5.85;4.75;;;;;23.90;96909.00;;;;8366307;28;20200;-69
2023/09/26 09:37:29;;;;;;;6.28;4.70;;;;;24.50;96906.00;;;;8360762;28;20200;-70
2023/09/26 09:41:33;;;;;;;8.60;4.90;;;;;25.20;96918.00;;;;8344916;28;20512;-70
2023/09/26 09:45:40;;;;;;;6.78;4.45;;;;;25.70;96911.00;;;;8339202;28;20231;-70
2023/09/26 09:49:48;;;;;;;4.90;4.00;;;;;26.10;96904.00;;;;8343187;28;20311;-68
2023/09/26 09:54:00;;;;;;;5.22;3.80;;;;;26.10;96906.00;;;;8323164;28;20619;-68
2023/09/26 09:58:08;;;;;;;8.93;4.10;;;;;26.00;96900.00;;;;8347545;28;20270;-68
2023/09/26 10:02:15;;;;;;;5.95;4.53;;;;;25.80;96894.00;;;;8348375;28;20221;-68
2023/09/26 10:06:19;;;;;;;7.13;4.13;;;;;25.60;96895.00;;;;8344146;28;20200;-69
2023/09/26 10:10:25;;;;;;;4.35;3.92;;;;;25.50;96896.00;;;;8347715;28;20204;-68
2023/09/26 10:14:32;;;;;;;6.90;3.78;;;;;25.50;96891.00;;;;8339786;28;20236;-69
2023/09/26 10:18:39;;;;;;;9.57;4.90;;;;;25.30;96886.00;;;;8349120;28;20196;-68
2023/09/26 10:22:43;;;;;;;4.97;4.45;;;;;25.10;96896.00;;;;8355675;28;20319;-69
2023/09/26 10:26:51;;;;;;;7.85;4.28;;;;;24.50;96892.00;;;;8353970;28;20259;-68
2023/09/26 10:31:10;;;;;;;7.47;4.03;;;;;24.00;96881.00;;;;8335440;28;20970;-69
2023/09/26 10:35:30;;;;;;;8.32;4.47;;;;;23.90;96873.00;;;;8347121;28;20208;-68
2023/09/26 10:39:37;;;;;;;10.48;4.10;;;;;23.90;96876.00;;;;8332713;28;20204;-66
2023/09/26 10:43:46;;;;;;;4.47;3.22;;;;;24.40;96871.00;;;;8323113;28;20663;-66
2023/09/26 10:48:05;;;;;;;8.80;4.32;;;;;24.70;96864.00;;;;8329920;28;20196;-66
2023/09/26 10:52:46;;;;;;;6.05;4.15;;;;;24.80;96870.00;;;;8398943;27;20577;-66
2023/09/26 10:56:53;;;;;;;4.75;3.45;;;;;24.80;96872.00;;;;8364455;28;20211;-67
2023/09/26 11:00:57;;;;;;;5.88;4.07;;;;;24.90;96875.00;;;;8378108;28;20333;-67
2023/09/26 11:05:06;;;;;;;6.00;3.60;;;;;24.80;96877.00;;;;8355227;28;20219;-67
2023/09/26 11:09:12;;;;;;;4.07;3.72;;;;;25.10;96873.00;;;;8360667;28;20224;-67
2023/09/26 11:13:18;;;;;;;3.50;3.20;;;;;25.20;96869.00;;;;8366636;28;20215;-67
2023/09/26 11:17:26;;;;;;;4.15;3.22;;;;;25.40;96866.00;;;;8356192;28;21534;-67
2023/09/26 11:21:31;;;;;;;5.18;3.50;;;;;25.10;96862.00;;;;8344429;28;20197;-70
2023/09/26 11:25:42;;;;;;;5.93;3.47;;;;;24.80;96853.00;;;;8360590;28;20284;-70
2023/09/26 11:29:46;;;;;;;4.70;3.60;;;;;25.20;96858.00;;;;8351279;28;20236;-70
2023/09/26 11:33:51;;;;;;;5.60;4.03;;;;;25.30;96851.00;;;;8354490;28;20238;-70
2023/09/26 11:37:55;;;;;;;6.63;3.70;;;;;25.30;96848.00;;;;8341727;28;20209;-69
2023/09/26 11:42:07;;;;;;;6.55;4.10;;;;;25.30;96847.00;;;;8369443;28;20192;-70
2023/09/26 11:46:10;;;;;;;4.30;3.60;;;;;25.40;96842.00;;;;8358881;28;20723;-69
2023/09/26 11:50:14;;;;;;;8.13;3.45;;;;;24.90;96839.00;;;;8359455;28;20263;-70
2023/09/26 11:54:18;;;;;;;7.57;3.88;;;;;24.70;96839.00;;;;8357443;28;20221;-70
2023/09/26 11:58:25;;;;;;;8.85;4.30;;;;;24.60;96838.00;;;;8344017;28;20200;-70
2023/09/26 12:02:29;;;;;;;4.97;3.90;;;;;24.40;96827.00;;;;8328996;28;20247;-70
2023/09/26 12:06:32;;;;;;;6.35;3.65;;;;;24.50;96827.00;;;;8330715;28;20255;-70
2023/09/26 12:10:39;;;;;;;10.02;4.43;;;;;24.60;96828.00;;;;8323424;28;20229;-70
2023/09/26 12:14:48;;;;;;;8.68;3.95;;;;;24.60;96823.00;;;;8333585;28;20197;-70
2023/09/26 12:18:54;;;;;;;8.63;3.78;;;;;24.30;96821.00;;;;8337423;28;20211;-70
2023/09/26 12:22:58;;;;;;;4.47;3.65;;;;;24.10;96823.00;;;;8338497;28;20227;-70
2023/09/26 12:27:04;;;;;;;7.82;3.45;;;;;24.00;96821.00;;;;8333293;28;20200;-70
2023/09/26 12:31:09;;;;;;;12.38;4.53;;;;;23.90;96813.00;;;;8328410;28;20763;-70
2023/09/26 12:35:13;;;;;;;5.38;3.35;;;;;23.90;96808.00;;;;8326228;28;20201;-69
2023/09/26 12:39:18;;;;;;;5.78;3.72;;;;;24.10;96806.00;;;;8340418;28;20205;-69
2023/09/26 12:43:24;;;;;;;6.63;3.70;;;;;24.10;96812.00;;;;8333272;28;20228;-69
2023/09/26 12:47:30;;;;;;;8.45;3.50;;;;;24.00;96805.00;;;;8338388;28;20296;-69
2023/09/26 12:51:36;;;;;;;6.22;4.13;;;;;24.10;96803.00;;;;8341996;28;20291;-69
2023/09/26 12:55:42;;;;;;;6.80;3.65;;;;;24.20;96797.00;;;;8335207;28;20280;-69
2023/09/26 12:59:45;;;;;;;9.02;3.75;;;;;24.20;96790.00;;;;8336248;28;20876;-69
2023/09/26 13:03:50;;;;;;;10.52;4.53;;;;;24.10;96788.00;;;;8330580;28;20312;-69
2023/09/26 13:07:53;;;;;;;12.38;4.07;;;;;24.10;96791.00;;;;8336380;28;21152;-69
2023/09/26 13:11:56;;;;;;;7.07;3.72;;;;;24.20;96782.00;;;;8342412;28;20236;-69
2023/09/26 13:16:01;;;;;;;6.05;3.50;;;;;24.40;96778.00;;;;8334476;28;20213;-69
2023/09/26 13:20:11;;;;;;;11.82;4.03;;;;;24.50;96783.00;;;;8341117;28;20204;-69
2023/09/26 13:24:18;;;;;;;12.40;3.90;;;;;24.60;96778.00;;;;8336292;28;20223;-69
2023/09/26 13:28:21;;;;;;;6.45;3.67;;;;;24.80;96778.00;;;;8333671;28;20201;-69
2023/09/26 13:32:24;;;;;;;10.55;4.25;;;;;24.90;96775.00;;;;8325373;28;20855;-68
2023/09/26 13:36:31;;;;;;;7.25;3.90;;;;;25.00;96774.00;;;;8340112;28;20255;-68
2023/09/26 13:40:34;;;;;;;5.93;3.42;;;;;25.20;96773.00;;;;8339506;28;21008;-70
2023/09/26 13:44:38;;;;;;;7.18;3.80;;;;;25.30;96777.00;;;;8327412;28;20204;-68
2023/09/26 13:48:41;;;;;;;7.10;3.55;;;;;25.40;96769.00;;;;8336791;28;20239;-69
2023/09/26 13:52:46;;;;;;;5.47;3.60;;;;;25.50;96761.00;;;;8324776;28;20335;-68
2023/09/26 13:56:49;;;;;;;6.90;3.78;;;;;25.70;96766.00;;;;8337118;28;20231;-68
2023/09/26 14:00:54;;;;;;;8.23;3.70;;;;;26.10;96766.00;;;;8341516;28;20228;-68
2023/09/26 14:04:57;;;;;;;7.65;3.90;;;;;26.30;96768.00;;;;8332871;28;20701;-68
2023/09/26 14:09:22;;;;;;;6.18;3.53;;;;;26.40;96768.00;;;;8330433;28;20205;-68
2023/09/26 14:13:29;;;;;;;5.88;3.45;;;;;26.60;96760.00;;;;8338983;28;20708;-68
2023/09/26 14:17:32;;;;;;;5.20;3.50;;;;;26.70;96771.00;;;;8332701;28;20246;-68
2023/09/26 14:21:38;;;;;;;7.03;3.55;;;;;26.70;96762.00;;;;8334948;28;20871;-68
2023/09/26 14:25:54;;;;;;;6.25;3.80;;;;;26.70;96761.00;;;;8319177;28;20224;-69
2023/09/26 14:30:02;;;;;;;7.55;4.20;;;;;26.70;96770.00;;;;8323509;28;20208;-69
2023/09/26 14:34:06;;;;;;;7.45;3.83;;;;;26.80;96766.00;;;;8330349;28;20291;-67
2023/09/26 14:38:11;;;;;;;6.97;3.92;;;;;27.00;96766.00;;;;8331137;28;20201;-67
2023/09/26 14:42:18;;;;;;;11.20;3.63;;;;;27.10;96771.00;;;;8328576;28;20201;-66
2023/09/26 14:46:21;;;;;;;6.70;3.78;;;;;27.20;96765.00;;;;8354901;28;20193;-67
2023/09/26 14:50:24;;;;;;;6.22;3.72;;;;;27.20;96768.00;;;;8341082;28;20306;-66
2023/09/26 14:54:31;;;;;;;4.50;3.22;;;;;27.30;96766.00;;;;8325605;28;20201;-66
2023/09/26 14:58:38;;;;;;;8.25;3.65;;;;;27.30;96768.00;;;;8329113;28;20201;-66
2023/09/26 15:02:41;;;;;;;8.07;3.35;;;;;27.40;96778.00;;;;8335729;28;20267;-66
2023/09/26 15:06:51;;;;;;;4.18;3.58;;;;;27.40;96774.00;;;;8332825;28;20193;-66
2023/09/26 15:10:54;;;;;;;12.85;3.58;;;;;27.50;96774.00;;;;8326861;28;21042;-66
2023/09/26 15:15:13;;;;;;;6.57;3.70;;;;;27.50;96778.00;;;;8323178;28;20293;-70
2023/09/26 15:19:20;;;;;;;4.38;3.47;;;;;27.50;96773.00;;;;8324248;28;20213;-70
2023/09/26 15:23:23;;;;;;;4.32;3.47;;;;;27.40;96768.00;;;;8323680;28;20198;-71
2023/09/26 15:27:27;;;;;;;5.47;3.65;;;;;27.50;96765.00;;;;8327082;28;20698;-70
2023/09/26 15:31:32;;;;;;;5.68;3.63;;;;;27.40;96765.00;;;;8317423;28;20871;-70
2023/09/26 15:35:40;;;;;;;6.22;3.92;;;;;27.30;96764.00;;;;8322052;28;20858;-69
2023/09/26 15:39:43;;;;;;;8.38;3.95;;;;;27.20;96772.00;;;;8328592;28;20200;-71
2023/09/26 15:43:50;;;;;;;5.70;3.17;;;;;27.20;96764.00;;;;8340970;28;20280;-70
2023/09/26 15:47:57;;;;;;;6.28;3.47;;;;;27.20;96766.00;;;;8326745;28;20205;-71
2023/09/26 15:52:01;;;;;;;5.68;3.47;;;;;27.20;96774.00;;;;8327822;28;20224;-69
2023/09/26 15:56:06;;;;;;;9.65;3.60;;;;;27.10;96776.00;;;;8333986;28;20456;-66
2023/09/26 16:00:10;;;;;;;8.35;3.58;;;;;26.80;96773.00;;;;8330632;28;20318;-66
2023/09/26 16:04:14;;;;;;;8.35;3.50;;;;;26.50;96765.00;;;;8319472;28;20227;-66
2023/09/26 16:08:20;;;;;;;5.18;3.88;;;;;26.10;96776.00;;;;8338385;28;20252;-66
2023/09/26 16:12:23;;;;;;;7.07;4.05;;;;;25.70;96774.00;;;;8327809;28;20303;-66
2023/09/26 16:16:26;;;;;;;8.70;4.13;;;;;25.30;96767.00;;;;8333835;28;20594;-66
2023/09/26 16:20:31;;;;;;;7.70;4.22;;;;;24.90;96773.00;;;;8332900;28;20216;-66
2023/09/26 16:24:34;;;;;;;11.07;4.07;;;;;24.70;96774.00;;;;8332433;28;20275;-66
2023/09/26 16:28:37;;;;;;;7.82;4.07;;;;;24.30;96779.00;;;;8324748;28;20193;-66
2023/09/26 16:32:43;;;;;;;5.78;3.85;;;;;23.90;96768.00;;;;8320289;28;20218;-66
2023/09/26 16:36:49;;;;;;;15.80;5.10;;;;;23.50;96770.00;;;;8331901;28;20197;-66
2023/09/26 16:40:52;;;;;;;6.78;4.32;;;;;23.10;96766.00;;;;8332107;28;20201;-66
2023/09/26 16:44:55;;;;;;;9.20;4.30;;;;;22.70;96768.00;;;;8328824;28;20212;-67
2023/09/26 16:48:59;;;;;;;7.97;4.85;;;;;22.20;96770.00;;;;8319776;28;20755;-66
2023/09/26 16:53:04;;;;;;;7.13;3.95;;;;;21.80;96767.00;;;;8325292;28;20316;-66
2023/09/26 16:57:08;;;;;;;6.95;4.43;;;;;21.40;96772.00;;;;8327678;28;20200;-66
2023/09/26 17:01:12;;;;;;;7.15;4.15;;;;;21.10;96777.00;;;;8326044;28;20256;-66
2023/09/26 17:05:19;;;;;;;7.40;4.60;;;;;20.80;96772.00;;;;8325941;28;20231;-66
2023/09/26 17:09:24;;;;;;;9.43;5.03;;;;;20.40;96772.00;;;;8330496;28;20197;-66
2023/09/26 17:13:27;;;;;;;12.10;5.45;;;;;20.10;96781.00;;;;8327874;28;20224;-66
2023/09/26 17:17:30;;;;;;;9.88;4.90;;;;;19.80;96768.00;;;;8327256;28;20228;-65
2023/09/26 17:21:34;;;;;;;13.93;5.88;;;;;19.50;96774.00;;;;8338682;28;20701;-65
2023/09/26 17:25:39;;;;;;;9.43;5.50;;;;;19.30;96775.00;;;;8323287;28;20287;-65
2023/09/26 17:29:43;;;;;;;11.50;5.32;;;;;19.10;96777.00;;;;8330371;28;20198;-65
2023/09/26 17:33:46;;;;;;;10.63;5.78;;;;;18.80;96775.00;;;;8321899;28;20233;-65
2023/09/26 17:37:52;;;;;;;9.00;4.97;;;;;18.70;96784.00;;;;8328642;28;20798;-65
2023/09/26 17:41:58;;;;;;;10.55;5.45;;;;;18.60;96789.00;;;;8326445;28;20197;-65
2023/09/26 17:46:01;;;;;;;12.98;6.47;;;;;18.50;96790.00;;;;8325021;28;20205;-65
2023/09/26 17:50:05;;;;;;;10.32;6.18;;;;;18.30;96795.00;;;;8323833;28;20267;-65
2023/09/26 17:54:09;;;;;;;10.27;5.90;;;;;18.10;96791.00;;;;8334245;28;20445;-65
2023/09/26 17:58:14;;;;;;;6.50;5.38;;;;;18.00;96785.00;;;;8328990;28;20204;-65
2023/09/26 18:02:18;;;;;;;10.82;6.38;;;;;17.80;96793.00;;;;8331995;28;20415;-65
2023/09/26 18:06:23;;;;;;;8.95;6.38;;;;;17.70;96796.00;;;;8320000;28;20198;-65
2023/09/26 18:10:31;;;;;;;8.75;5.07;;;;;17.60;96797.00;;;;8323924;28;20224;-65
2023/09/26 18:14:36;;;;;;;9.40;5.70;;;;;17.50;96802.00;;;;8329150;28;20225;-65
2023/09/26 18:18:39;;;;;;;9.02;6.10;;;;;17.50;96805.00;;;;8334897;28;20201;-64
2023/09/26 18:22:42;;;;;;;12.32;5.78;;;;;17.40;96815.00;;;;8329450;28;20295;-64
2023/09/26 18:26:45;;;;;;;15.13;6.20;;;;;17.30;96817.00;;;;8336534;28;20188;-64
2023/09/26 18:30:50;;;;;;;10.60;6.22;;;;;17.20;96819.00;;;;8346662;28;20227;-63
2023/09/26 18:34:56;;;;;;;10.38;5.72;;;;;17.10;96827.00;;;;8333309;28;20230;-63
2023/09/26 18:39:02;;;;;;;10.35;6.07;;;;;17.10;96820.00;;;;8344466;28;20204;-63
2023/09/26 18:43:06;;;;;;;14.75;6.88;;;;;17.00;96829.00;;;;8345803;28;20660;-63
2023/09/26 18:47:12;;;;;;;11.73;6.53;;;;;16.90;96833.00;;;;8346175;28;20200;-63
2023/09/26 18:51:15;;;;;;;10.60;6.82;;;;;16.70;96833.00;;;;8335067;28;20205;-62
2023/09/26 18:55:19;;;;;;;17.50;6.57;;;;;16.60;96830.00;;;;8333087;28;20678;-63
2023/09/26 18:59:25;;;;;;;11.88;6.55;;;;;16.40;96831.00;;;;8322143;28;20248;-63
2023/09/26 19:03:31;;;;;;;11.38;6.50;;;;;16.30;96833.00;;;;8322375;28;20244;-64
2023/09/26 19:07:36;;;;;;;12.43;6.88;;;;;16.20;96830.00;;;;8327323;28;20665;-64
2023/09/26 19:11:42;;;;;;;18.35;7.47;;;;;16.20;96841.00;;;;8328246;28;20312;-64
2023/09/26 19:15:48;;;;;;;13.88;7.68;;;;;16.20;96839.00;;;;8337977;28;20646;-64
2023/09/26 19:19:55;;;;;;;11.63;7.10;;;;;16.20;96844.00;;;;8345449;28;20216;-65
2023/09/26 19:24:03;;;;;;;13.63;7.47;;;;;16.20;96838.00;;;;8322079;28;20718;-65
2023/09/26 19:28:14;;;;;;;13.35;8.82;;;;;16.10;96843.00;;;;8333639;28;20201;-65
2023/09/26 19:32:23;;;;;;;17.88;8.05;;;;;16.10;96843.00;;;;8322318;28;20229;-65
2023/09/26 19:36:27;;;;;;;13.48;7.95;;;;;16.00;96838.00;;;;8325095;28;20202;-65
2023/09/26 19:40:33;;;;;;;12.63;8.38;;;;;15.90;96834.00;;;;8329135;28;20555;-65
2023/09/26 19:44:37;;;;;;;16.88;8.57;;;;;15.90;96838.00;;;;8329638;28;20200;-64
2023/09/26 19:48:40;;;;;;;13.15;7.95;;;;;15.80;96829.00;;;;8323383;28;20235;-65
2023/09/26 19:52:46;;;;;;;17.95;9.10;;;;;15.70;96833.00;;;;8323795;28;20333;-65
2023/09/26 19:56:49;;;;;;;15.32;8.40;;;;;15.60;96840.00;;;;8324316;28;20228;-65
2023/09/26 20:00:53;;;;;;;18.58;9.13;;;;;15.50;96829.00;;;;8319285;28;20205;-65
2023/09/26 20:04:57;;;;;;;15.95;8.70;;;;;15.40;96830.00;;;;8326415;28;21172;-65
2023/09/26 20:09:05;;;;;;;16.10;9.68;;;;;15.30;96828.00;;;;8331412;28;20201;-65
2023/09/26 20:13:10;;;;;;;13.07;9.32;;;;;15.20;96825.00;;;;8343565;28;20259;-65
2023/09/26 20:17:18;;;;;;;16.88;10.10;;;;;15.20;96821.00;;;;8331680;28;20275;-65
2023/09/26 20:21:21;;;;;;;16.05;9.38;;;;;15.10;96815.00;;;;8330637;28;20216;-64